createdAt,value
2022-09-18T03:17:56.431Z,98241.72
2022-09-18T06:09:29.535Z,98285.63
2022-09-18T06:11:57.998Z,98289.41
2022-09-18T06:14:25.249Z,98285.19
2022-09-18T06:26:05.891Z,98287.56
2022-09-18T06:28:47.930Z,98286.56
2022-09-18T06:31:15.976Z,98291.53
2022-09-18T06:34:04.595Z,98298.59
2022-09-18T06:36:31.866Z,98294.63
2022-09-18T06:39:15.798Z,98305.13
2022-09-18T06:41:45.296Z,98304.41
2022-09-18T06:44:25.955Z,98310.66
2022-09-18T06:47:05.225Z,98302.69
2022-09-18T06:55:53.003Z,98305.94
2022-09-18T08:42:07.912Z,98299.56
2022-09-18T08:44:59.602Z,98300.38
2022-09-18T08:47:43.150Z,98293.63
2022-09-18T08:50:24.565Z,98292.50
2022-09-18T08:53:22.596Z,98286.09
2022-09-18T09:01:42.861Z,98279.69
2022-09-18T09:33:22.777Z,98270.31
2022-09-18T09:36:19.154Z,98265.81
2022-09-18T13:44:36.704Z,98454.41
2022-09-18T14:08:45.900Z,98494.56
2022-09-18T14:20:57.434Z,98501.84
2022-09-18T14:23:35.488Z,98510.41
2022-09-18T14:26:28.581Z,98506.13
2022-09-18T14:29:06.603Z,98510.25
2022-09-18T14:31:55.428Z,98508.75
2022-09-18T14:34:33.797Z,98501.03
2022-09-18T14:37:24.685Z,98514.34
2022-09-18T14:39:55.184Z,98507.50
2022-09-18T14:42:39.625Z,98512.34
2022-09-18T14:45:09.702Z,98510.19
2022-09-18T14:47:38.353Z,98516.47
2022-09-18T14:50:41.284Z,98526.81
2022-09-18T14:53:24.506Z,98521.56
2022-09-18T14:56:05.976Z,98531.88
2022-09-18T14:58:40.702Z,98534.28
2022-09-18T15:01:45.564Z,98522.91
2022-09-18T15:04:20.171Z,98524.63
2022-09-18T15:06:54.419Z,98522.56
2022-09-18T15:09:34.763Z,98511.19
2022-09-18T15:12:03.329Z,98518.47
2022-09-18T15:14:42.680Z,98521.69
2022-09-18T15:17:23.574Z,98529.72
2022-09-18T15:20:17.824Z,98527.84
2022-09-18T15:22:45.278Z,98526.22
2022-09-18T15:25:15.264Z,98523.31
2022-09-18T15:27:44.866Z,98528.66
2022-09-18T15:30:19.887Z,98530.28
2022-09-18T15:33:02.392Z,98538.50
2022-09-18T15:35:35.756Z,98531.28
2022-09-18T15:38:14.201Z,98531.56
2022-09-18T15:40:43.538Z,98542.88
2022-09-18T15:43:30.621Z,98536.75
2022-09-18T15:46:08.366Z,98531.91
2022-09-18T15:48:43.975Z,98531.91
2022-09-18T15:51:17.346Z,98535.63
2022-09-18T15:54:24.558Z,98531.56
2022-09-18T15:57:00.884Z,98549.44
2022-09-18T15:59:40.682Z,98540.84
2022-09-18T16:02:38.935Z,98540.28
2022-09-18T16:05:12.998Z,98542.66
2022-09-18T16:07:52.665Z,98545.56
2022-09-18T16:10:39.498Z,98537.31
2022-09-18T16:13:15.339Z,98545.56
2022-09-18T16:15:47.653Z,98540.75
2022-09-18T16:18:29.146Z,98546.56
2022-09-18T16:20:57.733Z,98535.88
2022-09-18T16:23:33.109Z,98544.94
2022-09-18T16:26:13.121Z,98536.38
2022-09-18T16:28:52.210Z,98531.00
2022-09-18T16:31:23.227Z,98538.00
2022-09-18T16:34:36.953Z,98539.59
2022-09-18T16:37:08.146Z,98541.72
2022-09-18T16:39:35.298Z,98538.47
2022-09-18T16:42:25.325Z,98532.31
2022-09-18T16:44:52.884Z,98537.34
2022-09-18T16:47:19.901Z,98530.38
2022-09-18T16:49:49.451Z,98534.09
2022-09-18T16:52:16.889Z,98531.94
2022-09-18T16:54:43.930Z,98531.94
2022-09-18T16:57:21.727Z,98535.91
2022-09-18T16:59:50.675Z,98533.25
2022-09-18T17:02:25.404Z,98535.91
2022-09-18T17:04:53.334Z,98533.47
2022-09-18T17:07:20.631Z,98533.97
2022-09-18T17:09:48.123Z,98535.03
2022-09-18T17:12:16.053Z,98538.19
2022-09-18T17:14:43.401Z,98541.91
2022-09-18T17:17:11.568Z,98541.91
2022-09-18T17:19:41.098Z,98543.22
2022-09-18T17:22:09.023Z,98540.22
2022-09-18T17:24:36.428Z,98548.72
2022-09-18T17:27:05.036Z,98550.84
2022-09-18T17:29:32.610Z,98553.78
2022-09-18T17:31:59.839Z,98550.78
2022-09-18T17:34:28.379Z,98555.56
2022-09-18T17:36:55.791Z,98553.94
2022-09-18T17:39:22.783Z,98561.38
2022-09-18T17:41:50.494Z,98561.84
2022-09-18T17:44:17.948Z,98551.69
2022-09-18T17:46:45.257Z,98555.88
2022-09-18T17:49:12.529Z,98560.09
2022-09-18T17:51:40.148Z,98562.22
2022-09-18T17:54:08.143Z,98563.72
2022-09-18T17:56:35.235Z,98566.91
2022-09-18T17:59:11.202Z,98566.56
2022-09-18T18:01:46.103Z,98569.97
2022-09-18T18:04:14.500Z,98568.81
2022-09-18T18:06:42.232Z,98566.38
2022-09-18T18:09:10.222Z,98566.66
2022-09-18T18:11:38.627Z,98560.41
2022-09-18T18:14:06.011Z,98553.69
2022-09-18T18:16:34.754Z,98560.56
2022-09-18T18:19:08.101Z,98568.78
2022-09-18T18:21:36.003Z,98565.22
2022-09-18T18:24:11.818Z,98564.66
2022-09-18T18:26:40.399Z,98569.44
2022-09-18T18:29:13.177Z,98566.16
2022-09-18T18:31:43.507Z,98565.34
2022-09-18T18:34:13.557Z,98557.59
2022-09-18T18:36:42.766Z,98553.28
2022-09-18T18:39:13.006Z,98551.09
2022-09-18T18:41:41.038Z,98558.53
2022-09-18T18:44:11.407Z,98559.00
2022-09-18T18:46:39.887Z,98563.78
2022-09-18T18:49:15.306Z,98562.38
2022-09-18T18:51:51.913Z,98570.66
2022-09-18T18:54:22.067Z,98569.50
2022-09-18T18:56:50.013Z,98565.47
2022-09-18T18:59:19.857Z,98577.41
2022-09-18T19:01:47.895Z,98571.78
2022-09-18T19:04:19.276Z,98569.84
2022-09-18T19:06:49.515Z,98565.66
2022-09-18T19:09:21.520Z,98557.88
2022-09-18T19:11:52.595Z,98566.28
2022-09-18T19:14:28.086Z,98563.97
2022-09-18T19:16:56.725Z,98555.97
2022-09-18T19:19:28.319Z,98556.75
2022-09-18T19:21:59.827Z,98555.38
2022-09-18T19:24:30.039Z,98557.47
2022-09-18T19:26:58.861Z,98554.25
2022-09-18T19:29:27.547Z,98556.34
2022-09-18T19:31:55.484Z,98552.53
2022-09-18T19:34:22.665Z,98559.94
2022-09-18T19:36:51.909Z,98552.44
2022-09-18T19:39:23.832Z,98554.50
2022-09-18T19:42:14.939Z,98555.78
2022-09-18T19:44:52.223Z,98551.75
2022-09-18T19:47:46.257Z,98561.84
2022-09-18T19:50:28.110Z,98553.28
2022-09-18T19:52:56.482Z,98556.41
2022-09-18T19:55:23.973Z,98560.13
2022-09-18T19:57:56.983Z,98556.91
2022-09-18T20:00:26.287Z,98555.25
2022-09-18T20:02:59.081Z,98553.06
2022-09-18T20:05:27.242Z,98561.06
2022-09-18T20:07:54.285Z,98554.13
2022-09-18T20:10:22.825Z,98550.84
2022-09-18T20:12:52.985Z,98554.59
2022-09-18T20:15:20.433Z,98553.19
2022-09-18T20:17:47.738Z,98555.50
2022-09-18T20:20:16.563Z,98553.34
2022-09-18T20:22:44.312Z,98536.16
2022-09-18T20:25:11.785Z,98545.44
2022-09-18T20:27:42.080Z,98544.06
2022-09-18T20:30:13.173Z,98550.91
2022-09-18T20:32:40.693Z,98551.38
2022-09-18T20:35:08.417Z,98549.78
2022-09-18T20:37:35.915Z,98558.22
2022-09-18T20:40:06.497Z,98550.69
2022-09-18T20:42:35.018Z,98557.28
2022-09-18T20:45:02.964Z,98551.59
2022-09-18T20:47:36.252Z,98551.28
2022-09-18T20:50:07.117Z,98554.97
2022-09-18T20:52:43.058Z,98544.00
2022-09-18T20:55:15.397Z,98544.44
2022-09-18T20:57:46.600Z,98534.25
2022-09-18T21:00:16.139Z,98527.78
2022-09-18T21:02:49.528Z,98520.81
2022-09-18T21:05:16.940Z,98525.81
2022-09-18T21:07:45.597Z,98514.78
2022-09-18T21:10:14.885Z,98520.56
2022-09-18T21:12:42.045Z,98524.75
2022-09-18T21:15:14.329Z,98521.50
2022-09-18T21:17:42.868Z,98524.06
2022-09-18T21:20:10.756Z,98516.53
2022-09-18T21:22:57.834Z,98511.66
2022-09-18T21:25:25.399Z,98518.03
2022-09-18T21:27:55.612Z,98513.16
2022-09-18T21:30:25.414Z,98515.72
2022-09-18T21:32:55.753Z,98513.50
2022-09-18T21:35:23.182Z,98508.06
2022-09-18T21:37:50.217Z,98515.47
2022-09-18T21:40:17.408Z,98508.53
2022-09-18T21:42:47.485Z,98505.25
2022-09-18T21:45:20.536Z,98503.66
2022-09-18T21:47:50.204Z,98502.03
2022-09-18T21:50:17.700Z,98493.47
2022-09-18T21:52:45.005Z,98506.16
2022-09-18T21:55:12.971Z,98505.09
2022-09-18T21:57:40.446Z,98501.28
2022-09-18T22:00:09.932Z,98495.16
2022-09-18T22:02:40.979Z,98496.41
2022-09-18T22:05:12.463Z,98484.19
2022-09-18T22:07:40.774Z,98492.16
2022-09-18T22:10:08.860Z,98493.19
2022-09-18T22:12:39.034Z,98488.88
2022-09-18T22:15:06.926Z,98500.16
2022-09-18T22:17:34.233Z,98500.16
2022-09-18T22:20:01.465Z,98489.50
2022-09-18T22:22:28.509Z,98486.00
2022-09-18T22:24:56.958Z,98492.72
2022-09-18T22:27:24.742Z,98480.44
2022-09-18T22:29:51.733Z,98486.59
2022-09-18T22:32:19.666Z,98476.75
2022-09-18T22:34:46.865Z,98476.75
2022-09-18T22:37:14.024Z,98483.25
2022-09-18T22:39:41.470Z,98477.91
2022-09-18T22:42:10.033Z,98483.25
2022-09-18T22:44:37.041Z,98482.22
2022-09-18T22:47:05.025Z,98481.16
2022-09-18T22:49:32.081Z,98484.06
2022-09-18T22:51:59.039Z,98482.81
2022-09-18T22:54:26.948Z,98475.41
2022-09-18T22:56:55.332Z,98474.38
2022-09-18T22:59:26.106Z,98475.97
2022-09-18T23:02:00.866Z,98470.44
2022-09-18T23:04:30.296Z,98469.63
2022-09-18T23:06:59.104Z,98460.63
2022-09-18T23:09:27.472Z,98462.22
2022-09-18T23:11:55.397Z,98463.84
2022-09-18T23:14:28.634Z,98452.16
2022-09-18T23:16:57.881Z,98453.19
2022-09-18T23:19:30.595Z,98455.63
2022-09-18T23:21:57.750Z,98451.94
2022-09-18T23:24:26.159Z,98452.25
2022-09-18T23:26:58.329Z,98450.16
2022-09-18T23:29:27.793Z,98455.50
2022-09-18T23:31:59.742Z,98455.50
2022-09-18T23:34:30.878Z,98449.72
2022-09-18T23:37:00.043Z,98444.38
2022-09-18T23:39:33.950Z,98448.69
2022-09-18T23:42:04.438Z,98442.31
2022-09-18T23:44:32.849Z,98438.59
2022-09-18T23:47:00.700Z,98438.59
2022-09-18T23:49:29.349Z,98454.59
2022-09-18T23:51:57.555Z,98443.94
2022-09-18T23:54:28.513Z,98442.91
2022-09-18T23:56:56.734Z,98444.75
2022-09-18T23:59:26.153Z,98437.78
